.
WxDataArchive / Data Records for 2010-08-29
2010-08-28 August 2010 2010-08-30

Data Records for Sunday, 29 August 2010

Time	Temp	Chill	HIndex	Humid	Dewpt	 Wind 	HiWind	WindDir	Rain 	Barom 
-----	----	-----	------	-----	-----	------	------	-------	-----	----- 
00:00	65.0	65.0	65.0	73	56.1	0	0	---	0.00	30.112 
00:05	65.0	65.0	65.0	73	56.1	0	0	---	0.00	30.112 
00:10	64.8	64.8	64.8	73	55.9	0	0	---	0.00	30.112 
00:15	64.5	64.5	64.5	73	55.6	0	0	---	0.00	30.117 
00:20	64.3	64.3	64.3	74	55.8	0	0	---	0.00	30.117 
00:25	64.2	64.2	64.2	75	56.1	0	0	---	0.00	30.117 
00:30	64.0	64.0	64.0	76	56.3	0	0	---	0.00	30.116 
00:35	63.9	63.9	63.9	76	56.2	0	0	---	0.00	30.116 
00:40	63.7	63.7	63.7	77	56.3	0	0	---	0.00	30.116 
00:45	63.5	63.5	63.5	77	56.2	0	0	---	0.00	30.119 
00:50	63.4	63.4	63.4	77	56.1	0	0	---	0.00	30.119 
00:55	63.2	63.2	63.2	78	56.2	0	0	---	0.00	30.119 
01:00	63.1	63.1	63.1	78	56.1	0	0	---	0.00	30.124 
01:05	62.9	62.9	62.9	79	56.3	0	0	---	0.00	30.124 
01:10	62.9	62.9	62.9	80	56.6	0	0	---	0.00	30.124 
01:15	62.7	62.7	62.7	80	56.4	0	0	---	0.00	30.122 
01:20	62.6	62.6	62.6	80	56.3	0	0	---	0.00	30.122 
01:25	62.6	62.6	62.6	80	56.3	0	0	---	0.00	30.122 
01:30	62.4	62.4	62.4	80	56.1	0	0	---	0.00	30.124 
01:35	62.3	62.3	62.3	81	56.4	0	0	---	0.00	30.124 
01:40	62.1	62.1	62.1	81	56.2	0	0	---	0.00	30.124 
01:45	62.1	62.1	62.1	81	56.2	0	0	---	0.00	30.123 
01:50	62.0	62.0	62.0	81	56.1	0	0	---	0.00	30.123 
01:55	62.0	62.0	62.0	82	56.4	0	0	---	0.00	30.123 
02:00	61.8	61.8	61.8	82	56.2	0	0	---	0.00	30.123 
02:05	61.8	61.8	61.8	83	56.6	0	0	---	0.00	30.123 
02:10	61.6	61.6	61.6	83	56.4	0	0	---	0.00	30.123 
02:15	61.6	61.6	61.6	83	56.4	0	0	---	0.00	30.123 
02:20	61.5	61.5	61.5	84	56.6	0	0	---	0.00	30.123 
02:25	61.5	61.5	61.5	84	56.6	0	0	---	0.00	30.123 
02:30	61.3	61.3	61.3	84	56.4	0	0	---	0.00	30.123 
02:35	61.3	61.3	61.3	84	56.4	0	0	---	0.00	30.123 
02:40	61.3	61.3	61.3	84	56.4	0	0	---	0.00	30.123 
02:45	61.3	61.3	61.3	84	56.4	0	0	---	0.00	30.127 
02:50	61.2	61.2	61.2	84	56.3	0	0	---	0.00	30.127 
02:55	61.2	61.2	61.2	84	56.3	0	0	---	0.00	30.127 
03:00	61.2	61.2	61.2	84	56.3	0	0	---	0.00	30.132 
03:05	61.0	61.0	61.0	84	56.1	0	0	---	0.00	30.132 
03:10	61.0	61.0	61.0	84	56.1	0	0	---	0.00	30.132 
03:15	61.0	61.0	61.0	85	56.5	0	0	---	0.00	30.135 
03:20	61.0	61.0	61.0	85	56.5	0	0	---	0.00	30.135 
03:25	60.9	60.9	60.9	85	56.4	0	0	---	0.00	30.135 
03:30	60.9	60.9	60.9	85	56.4	0	0	---	0.00	30.138 
03:35	60.9	60.9	60.9	86	56.7	0	0	---	0.00	30.138 
03:40	60.9	60.9	60.9	86	56.7	0	0	---	0.00	30.138 
03:45	60.7	60.7	60.7	86	56.5	0	0	---	0.00	30.137 
03:50	60.7	60.7	60.7	86	56.5	0	0	---	0.00	30.137 
03:55	60.7	60.7	60.7	86	56.5	0	0	---	0.00	30.137 
04:00	60.5	60.5	60.5	86	56.3	0	0	---	0.00	30.137 
04:05	60.5	60.5	60.5	86	56.3	0	0	---	0.00	30.137 
04:10	60.5	60.5	60.5	86	56.3	0	0	---	0.00	30.137 
04:15	60.5	60.5	60.5	86	56.3	0	0	---	0.00	30.136 
04:20	60.5	60.5	60.5	86	56.3	0	0	---	0.00	30.136 
04:25	60.5	60.5	60.5	87	56.6	0	0	---	0.00	30.136 
04:30	60.5	60.5	60.5	86	56.3	0	0	---	0.00	30.136 
04:35	60.5	60.5	60.5	87	56.6	0	0	---	0.00	30.136 
04:40	60.5	60.5	60.5	87	56.6	0	0	---	0.00	30.136 
04:45	60.7	60.7	60.7	87	56.8	0	0	---	0.00	30.138 
04:50	60.7	60.7	60.7	87	56.8	0	0	---	0.00	30.138 
04:55	60.7	60.7	60.7	87	56.8	0	0	---	0.00	30.138 
05:00	60.7	60.7	60.7	87	56.8	0	0	---	0.00	30.138 
05:05	60.9	60.9	60.9	86	56.7	0	0	---	0.00	30.138 
05:10	60.9	60.9	60.9	87	57.0	0	0	---	0.00	30.138 
05:15	61.0	61.0	61.0	87	57.1	0	0	---	0.00	30.139 
05:20	61.0	61.0	61.0	87	57.1	0	0	---	0.00	30.139 
05:25	61.0	61.0	61.0	87	57.1	0	0	---	0.00	30.139 
05:30	61.0	61.0	61.0	87	57.1	0	0	---	0.00	30.141 
05:35	61.0	61.0	61.0	87	57.1	0	0	---	0.00	30.141 
05:40	61.0	61.0	61.0	87	57.1	0	0	---	0.00	30.141 
05:45	61.0	61.0	61.0	88	57.4	0	0	---	0.00	30.141 
05:50	61.0	61.0	61.0	88	57.4	0	0	---	0.00	30.141 
05:55	61.0	61.0	61.0	88	57.4	0	0	---	0.00	30.141 
06:00	61.2	61.2	61.2	88	57.6	0	0	---	0.00	30.143 
06:05	61.2	61.2	61.2	88	57.6	0	0	---	0.00	30.143 
06:10	61.2	61.2	61.2	88	57.6	0	0	---	0.00	30.143 
06:15	61.0	61.0	61.0	87	57.1	0	0	---	0.00	30.151 
06:20	61.0	61.0	61.0	87	57.1	0	0	---	0.00	30.151 
06:25	61.0	61.0	61.0	87	57.1	0	0	---	0.00	30.151 
06:30	61.2	61.2	61.2	87	57.3	0	0	---	0.00	30.157 
06:35	61.2	61.2	61.2	87	57.3	0	0	---	0.00	30.157 
06:40	61.3	61.3	61.3	86	57.1	0	0	---	0.00	30.157 
06:45	61.3	61.3	61.3	86	57.1	0	0	---	0.00	30.165 
06:50	61.5	61.5	61.5	86	57.3	0	0	---	0.00	30.165 
06:55	61.5	61.5	61.5	85	56.9	0	0	---	0.00	30.165 
07:00	61.5	61.5	61.5	85	56.9	0	0	---	0.00	30.170 
07:05	61.5	61.5	61.5	85	56.9	0	0	---	0.00	30.170 
07:10	61.5	61.5	61.5	85	56.9	0	0	---	0.00	30.170 
07:15	61.6	61.6	61.6	85	57.0	0	0	---	0.00	30.175 
07:20	61.8	61.8	61.8	85	57.2	0	0	---	0.00	30.175 
07:25	61.8	61.8	61.8	85	57.2	0	0	---	0.00	30.175 
07:30	61.8	61.8	61.8	85	57.2	0	0	---	0.00	30.182 
07:35	62.0	62.0	62.0	85	57.4	0	0	---	0.00	30.182 
07:40	62.0	62.0	62.0	85	57.4	0	0	---	0.00	30.182 
07:45	62.1	62.1	62.1	85	57.5	0	1	112	0.00	30.187 
07:50	62.4	62.4	62.4	84	57.5	0	1	112	0.00	30.187 
07:55	62.6	62.6	62.6	84	57.7	0	0	---	0.00	30.187 
08:00	62.7	62.7	62.7	84	57.8	0	0	---	0.00	30.188 
08:05	63.1	63.1	63.1	83	57.8	0	0	---	0.00	30.188 
08:10	63.7	63.7	63.7	83	58.4	0	1	112	0.00	30.188 
08:15	64.3	64.3	64.3	82	58.7	0	0	---	0.00	30.195 
08:20	65.0	65.0	65.0	80	58.7	0	1	112	0.00	30.195 
08:25	65.8	65.8	65.8	79	59.1	0	1	112	0.00	30.195 
08:30	66.4	66.4	66.4	77	59.0	0	1	112	0.00	30.198 
08:35	67.1	67.1	67.1	77	59.6	0	0	---	0.00	30.198 
08:40	67.4	67.4	67.4	77	59.9	0	0	---	0.00	30.198 
08:45	67.8	67.8	67.8	77	60.3	0	0	---	0.00	30.202 
08:50	68.1	68.1	68.1	77	60.6	0	0	---	0.00	30.202 
08:55	68.4	68.4	68.4	78	61.3	0	0	---	0.00	30.202 
09:00	68.9	68.9	68.9	77	61.4	0	0	---	0.00	30.203 
09:05	69.4	69.4	69.4	77	61.9	0	1	112	0.00	30.203 
09:10	69.9	69.9	69.9	77	62.3	0	1	112	0.00	30.203 
09:15	70.4	70.4	70.4	76	62.5	0	1	112	0.00	30.209 
09:20	70.9	70.9	70.9	76	62.9	0	1	112	0.00	30.209 
09:25	71.5	71.5	71.5	74	62.8	0	1	112	0.00	30.209 
09:30	72.1	72.1	72.1	73	63.0	0	1	112	0.00	30.208 
09:35	73.0	73.0	73.0	72	63.4	0	1	112	0.00	30.208 
09:40	73.7	73.7	73.7	72	64.1	0	2	112	0.00	30.208 
09:45	74.6	74.6	74.6	71	64.6	0	2	112	0.00	30.205 
09:50	75.4	75.4	77.1	70	64.9	0	1	112	0.00	30.205 
09:55	76.5	76.5	78.3	68	65.1	0	1	112	0.00	30.205 
10:00	77.4	77.4	79.2	66	65.1	0	1	112	0.00	30.202 
10:05	78.3	78.3	80.2	65	65.5	0	2	112	0.00	30.202 
10:10	79.2	79.2	81.2	64	65.9	0	1	112	0.00	30.202 
10:15	79.9	79.9	81.9	62	65.7	0	2	180	0.00	30.202 
10:20	80.9	80.9	83.1	61	66.2	0	1	180	0.00	30.202 
10:25	81.8	81.8	84.1	60	66.5	0	2	180	0.00	30.202 
10:30	83.0	83.0	85.5	58	66.7	0	1	180	0.00	30.198 
10:35	83.4	83.4	85.8	57	66.5	1	3	270	0.00	30.198 
10:40	84.1	84.1	86.7	56	66.7	0	4	112	0.00	30.198 
10:45	84.7	84.7	87.3	55	66.7	0	2	270	0.00	30.197 
10:50	85.1	85.1	87.7	54	66.6	1	3	270	0.00	30.197 
10:55	85.1	85.1	87.7	54	66.6	1	4	270	0.00	30.197 
11:00	85.5	85.5	88.3	54	66.9	1	3	270	0.00	30.197 
11:05	85.9	85.9	88.6	53	66.7	1	4	270	0.00	30.197 
11:10	86.5	86.5	89.3	52	66.7	0	3	90	0.00	30.197 
11:15	87.4	87.4	90.7	52	67.6	0	3	292	0.00	30.198 
11:20	87.4	87.4	90.4	51	67.0	1	3	248	0.00	30.198 
11:25	87.4	87.4	90.4	51	67.0	1	2	292	0.00	30.198 
11:30	87.4	87.4	90.4	51	67.0	1	3	270	0.00	30.196 
11:35	88.2	88.2	91.4	50	67.2	0	2	292	0.00	30.196 
11:40	89.0	89.0	92.8	50	67.9	0	2	270	0.00	30.196 
11:45	89.3	89.3	93.3	50	68.2	1	3	292	0.00	30.193 
11:50	89.9	89.9	94.0	49	68.1	1	2	0	0.00	30.193 
11:55	90.1	90.1	93.5	47	67.1	1	3	225	0.00	30.193 
12:00	90.1	90.1	93.5	47	67.1	1	3	270	0.00	30.191 
12:05	90.5	90.5	94.2	47	67.5	1	4	248	0.00	30.191 
12:10	90.7	90.7	95.0	48	68.3	0	2	248	0.00	30.191 
12:15	91.4	91.4	95.4	46	67.7	1	4	248	0.00	30.190 
12:20	91.8	91.8	95.6	45	67.4	0	3	270	0.00	30.190 
12:25	92.1	92.1	96.7	46	68.3	1	3	270	0.00	30.190 
12:30	91.8	91.8	95.6	45	67.4	1	3	90	0.00	30.188 
12:35	91.8	91.8	96.1	46	68.0	1	5	248	0.00	30.188 
12:40	91.6	91.6	94.8	44	66.6	1	3	248	0.00	30.188 
12:45	91.6	91.6	94.8	44	66.6	1	4	270	0.00	30.186 
12:50	92.1	92.1	95.7	44	67.0	0	2	270	0.00	30.186 
12:55	92.3	92.3	95.6	43	66.5	1	3	270	0.00	30.186 
13:00	92.1	92.1	95.7	44	67.0	1	4	248	0.00	30.179 
13:05	91.8	91.8	95.6	45	67.4	2	5	315	0.00	30.179 
13:10	92.3	92.3	95.6	43	66.5	1	5	90	0.00	30.179 
13:15	92.5	92.5	95.9	43	66.7	1	6	270	0.00	30.176 
13:20	92.3	92.3	95.6	43	66.5	1	4	270	0.00	30.176 
13:25	92.5	92.5	95.5	42	66.0	1	4	270	0.00	30.176 
13:30	92.5	92.5	95.5	42	66.0	1	3	270	0.00	30.168 
13:35	92.7	92.7	95.4	41	65.5	1	3	270	0.00	30.168 
13:40	92.5	92.5	95.5	42	66.0	1	3	248	0.00	30.168 
13:45	92.7	92.7	96.3	43	66.9	0	3	68	0.00	30.165 
13:50	93.2	93.2	96.2	41	65.9	2	5	90	0.00	30.165 
13:55	93.2	93.2	96.2	41	65.9	2	5	90	0.00	30.165 
14:00	93.4	93.4	96.6	41	66.1	1	4	112	0.00	30.163 
14:05	93.8	93.8	97.3	41	66.5	2	4	270	0.00	30.163 
14:10	93.2	93.2	96.2	41	65.9	2	4	270	0.00	30.163 
14:15	93.4	93.4	95.7	39	64.7	1	4	292	0.00	30.162 
14:20	93.4	93.4	96.6	41	66.1	1	4	90	0.00	30.162 
14:25	93.4	93.4	96.1	40	65.4	1	4	248	0.00	30.162 
14:30	93.4	93.4	95.7	39	64.7	2	6	90	0.00	30.158 
14:35	93.6	93.6	96.0	39	64.9	2	5	248	0.00	30.158 
14:40	94.0	94.0	96.7	39	65.2	1	3	270	0.00	30.158 
14:45	94.5	94.5	97.6	39	65.7	2	7	248	0.00	30.152 
14:50	94.7	94.7	97.9	39	65.8	1	6	112	0.00	30.152 
14:55	95.1	95.1	98.1	38	65.4	1	3	158	0.00	30.152 
15:00	95.1	95.1	97.1	36	63.9	1	5	180	0.00	30.147 
15:05	94.9	94.9	97.8	38	65.3	2	5	270	0.00	30.147 
15:10	94.5	94.5	96.6	37	64.1	1	4	90	0.00	30.147 
15:15	93.6	93.6	95.5	38	64.1	1	3	90	0.00	30.147 
15:20	93.6	93.6	94.7	36	62.6	0	2	90	0.00	30.147 
15:25	94.5	94.5	96.1	36	63.4	1	5	90	0.00	30.147 
15:30	94.7	94.7	96.0	35	62.7	1	3	315	0.00	30.142 
15:35	94.9	94.9	96.8	36	63.7	1	4	90	0.00	30.142 
15:40	94.9	94.9	96.8	36	63.7	2	5	112	0.00	30.142 
15:45	94.7	94.7	96.0	35	62.7	2	5	90	0.00	30.136 
15:50	94.5	94.5	95.7	35	62.6	2	5	90	0.00	30.136 
15:55	93.8	93.8	94.6	35	61.9	1	4	270	0.00	30.136 
16:00	93.6	93.6	93.9	34	61.0	1	3	292	0.00	30.133 
16:05	94.0	94.0	94.9	35	62.1	1	4	112	0.00	30.133 
16:10	94.5	94.5	95.7	35	62.6	1	3	112	0.00	30.133 
16:15	94.3	94.3	94.9	34	61.6	2	4	90	0.00	30.131 
16:20	93.8	93.8	95.4	37	63.5	1	2	90	0.00	30.131 
16:25	93.8	93.8	95.0	36	62.7	0	2	292	0.00	30.131 
16:30	94.0	94.0	94.5	34	61.3	1	3	292	0.00	30.130 
16:35	94.5	94.5	94.8	33	60.9	1	4	90	0.00	30.130 
16:40	94.3	94.3	94.9	34	61.6	2	5	292	0.00	30.130 
16:45	93.8	93.8	94.2	34	61.1	1	5	292	0.00	30.124 
16:50	93.6	93.6	93.5	33	60.1	1	4	315	0.00	30.124 
16:55	93.6	93.6	93.9	34	61.0	2	5	112	0.00	30.124 
17:00	93.4	93.4	93.6	34	60.8	1	5	112	0.00	30.122 
17:05	93.6	93.6	94.3	35	61.8	1	4	270	0.00	30.122 
17:10	93.6	93.6	94.3	35	61.8	1	3	68	0.00	30.122 
17:15	93.6	93.6	93.9	34	61.0	1	2	0	0.00	30.119 
17:20	93.6	93.6	93.5	33	60.1	1	3	270	0.00	30.119 
17:25	93.4	93.4	93.2	33	59.9	2	6	270	0.00	30.119 
17:30	93.2	93.2	93.3	34	60.6	1	2	22	0.00	30.120 
17:35	92.9	92.9	92.5	33	59.5	2	7	292	0.00	30.120 
17:40	92.7	92.7	92.5	34	60.2	1	3	248	0.00	30.120 
17:45	92.7	92.7	92.5	34	60.2	1	4	270	0.00	30.120 
17:50	92.7	92.7	91.9	32	58.5	1	5	112	0.00	30.120 
17:55	92.5	92.5	92.3	34	60.0	1	4	270	0.00	30.120 
18:00	92.5	92.5	92.3	34	60.0	1	4	270	0.00	30.120 
18:05	92.5	92.5	92.3	34	60.0	0	3	248	0.00	30.120 
18:10	92.1	92.1	91.7	34	59.6	1	3	270	0.00	30.120 
18:15	91.8	91.8	91.6	35	60.2	1	3	270	0.00	30.121 
18:20	91.6	91.6	91.3	35	60.0	1	3	270	0.00	30.121 
18:25	91.4	91.4	91.4	36	60.6	0	2	270	0.00	30.121 
18:30	91.4	91.4	91.4	36	60.6	0	2	270	0.00	30.121 
18:35	91.4	91.4	91.4	36	60.6	0	1	270	0.00	30.121 
18:40	91.0	91.0	90.8	36	60.3	0	2	270	0.00	30.121 
18:45	91.0	91.0	91.1	37	61.1	0	2	292	0.00	30.125 
18:50	90.7	90.7	90.7	37	60.8	0	2	292	0.00	30.125 
18:55	90.7	90.7	90.7	37	60.8	0	1	292	0.00	30.125 
19:00	90.5	90.5	90.4	37	60.6	0	1	292	0.00	30.126 
19:05	90.3	90.3	90.1	37	60.4	0	2	292	0.00	30.126 
19:10	90.3	90.3	90.1	37	60.4	0	2	292	0.00	30.126 
19:15	90.1	90.1	90.2	38	61.0	0	2	112	0.00	30.124 
19:20	90.1	90.1	90.2	38	61.0	0	4	112	0.00	30.124 
19:25	89.9	89.9	90.2	39	61.6	0	1	112	0.00	30.124 
19:30	89.5	89.5	90.0	40	61.9	0	1	112	0.00	30.126 
19:35	89.3	89.3	90.0	41	62.5	0	1	112	0.00	30.126 
19:40	89.0	89.0	89.6	41	62.2	0	1	112	0.00	30.126 
19:45	88.6	88.6	89.3	42	62.5	0	1	112	0.00	30.131 
19:50	88.2	88.2	88.7	42	62.2	0	1	112	0.00	30.131 
19:55	88.0	88.0	88.7	43	62.7	0	1	112	0.00	30.131 
20:00	87.6	87.6	88.2	43	62.3	0	1	112	0.00	30.134 
20:05	87.2	87.2	88.2	45	63.2	0	0	---	0.00	30.134 
20:10	86.7	86.7	87.8	46	63.4	0	0	---	0.00	30.134 
20:15	86.3	86.3	87.2	46	63.0	0	0	---	0.00	30.134 
20:20	85.7	85.7	86.7	47	63.1	0	0	---	0.00	30.134 
20:25	85.3	85.3	86.4	48	63.4	0	0	---	0.00	30.134 
20:30	84.7	84.7	85.8	49	63.4	0	0	---	0.00	30.136 
20:35	84.1	84.1	85.3	50	63.4	0	0	---	0.00	30.136 
20:40	83.6	83.6	84.8	51	63.5	0	0	---	0.00	30.136 
20:45	83.2	83.2	84.5	52	63.7	0	0	---	0.00	30.141 
20:50	82.6	82.6	84.0	53	63.7	0	0	---	0.00	30.141 
20:55	82.2	82.2	83.8	55	64.4	0	0	---	0.00	30.141 
21:00	81.6	81.6	83.2	56	64.4	0	0	---	0.00	30.147 
21:05	81.2	81.2	82.7	56	64.0	0	0	---	0.00	30.147 
21:10	81.1	81.1	82.8	57	64.4	0	0	---	0.00	30.147 
21:15	80.7	80.7	82.4	58	64.5	0	0	---	0.00	30.144 
21:20	80.5	80.5	82.3	59	64.8	0	0	---	0.00	30.144 
21:25	80.3	80.3	81.9	58	64.2	0	0	---	0.00	30.144 
21:30	80.1	80.1	81.7	58	64.0	0	0	---	0.00	30.147 
21:35	79.9	79.9	81.6	59	64.3	0	0	---	0.00	30.147 
21:40	79.8	79.8	81.5	59	64.2	0	0	---	0.00	30.147 
21:45	79.6	79.6	81.3	60	64.5	0	0	---	0.00	30.151 
21:50	79.2	79.2	80.9	60	64.1	0	0	---	0.00	30.151 
21:55	79.0	79.0	80.8	61	64.4	0	0	---	0.00	30.151 
22:00	78.6	78.6	80.4	62	64.5	0	0	---	0.00	30.154 
22:05	78.5	78.5	80.3	62	64.4	0	0	---	0.00	30.154 
22:10	78.1	78.1	79.9	62	64.0	0	0	---	0.00	30.154 
22:15	77.9	77.9	79.7	63	64.3	0	0	---	0.00	30.150 
22:20	77.7	77.7	79.5	64	64.5	0	0	---	0.00	30.150 
22:25	77.6	77.6	79.4	64	64.4	0	0	---	0.00	30.150 
22:30	77.4	77.4	79.2	65	64.7	0	0	---	0.00	30.156 
22:35	77.2	77.2	79.0	65	64.5	0	0	---	0.00	30.156 
22:40	77.0	77.0	78.8	65	64.3	0	0	---	0.00	30.156 
22:45	76.8	76.8	78.6	65	64.1	0	0	---	0.00	30.157 
22:50	76.7	76.7	78.5	66	64.5	0	0	---	0.00	30.157 
22:55	76.5	76.5	78.3	66	64.3	0	0	---	0.00	30.157 
23:00	76.3	76.3	78.1	66	64.1	0	0	---	0.00	30.161 
23:05	76.1	76.1	77.9	67	64.3	0	0	---	0.00	30.161 
23:10	76.0	76.0	77.8	67	64.2	0	0	---	0.00	30.161 
23:15	75.8	75.8	77.6	68	64.5	0	0	---	0.00	30.158 
23:20	75.6	75.6	77.4	68	64.3	0	0	---	0.00	30.158 
23:25	75.4	75.4	77.1	69	64.5	0	0	---	0.00	30.158 
23:30	75.3	75.3	77.0	69	64.4	0	0	---	0.00	30.160 
23:35	75.3	75.3	77.0	69	64.4	0	0	---	0.00	30.160 
23:40	75.4	75.4	77.2	68	64.1	0	0	---	0.00	30.160 
23:45	75.4	75.4	77.2	68	64.1	0	0	---	0.00	30.161 
23:50	75.6	75.6	77.4	68	64.3	0	0	---	0.00	30.161 
23:55	75.6	75.6	77.4	67	63.9	0	0	---	0.00	30.161 

CoCoRaHS
IN-AL-39
A2 Web Hosting
Creative Commons License
GoDaddy
search engine by freefind advanced

loaded 2018-11-16 11:20:01 • last modified 2010-11-18 10:43:29
Privacy PolicyDisclaimer
• wx.awcolley.com is powered by PmWiki v.2002016 •
• all content (unless otherwise noted) © 2018 A W Colley